This is the latest recevied weather packets stored in our database for station/object KD8BMB. If no packets are shown the sender has not sent any weather packets the latest 10 day(s).
| Time | Temp. | Humidity | Pressure | Rain* | Wind** | Luminosity | Snow |
|---|---|---|---|---|---|---|---|
| 1777570350 | 8.89° C | 60% | 1014.3 hPa | 0 mm | - | 199 W/m² | - |
| 1777570046 | 8.89° C | 58% | 1014.2 hPa | 0 mm | - | 177 W/m² | - |
| 1777569742 | 9.44° C | 57% | 1014.4 hPa | 0 mm | - | 178 W/m² | - |
| 1777569437 | 10° C | 52% | 1014.5 hPa | 0 mm | - | 189 W/m² | - |
| 1777569135 | 9.44° C | 56% | 1014.4 hPa | 0 mm | - | 247 W/m² | - |
| 1777568831 | 9.44° C | 55% | 1014.6 hPa | 0 mm | - | 317 W/m² | - |
| 1777568528 | 10° C | 53% | 1014.5 hPa | 0 mm | - | 288 W/m² | - |
| 1777568225 | 10° C | 54% | 1014.4 hPa | 0 mm | - | 877 W/m² | - |
| 1777567922 | 8.89° C | 58% | 1014.6 hPa | 0 mm | - | 433 W/m² | - |
| 1777567618 | 9.44° C | 58% | 1014.5 hPa | 0 mm | - | 195 W/m² | - |
| 1777567315 | 10.56° C | 55% | 1014.7 hPa | 0 mm | - | 228 W/m² | - |
| 1777567014 | 10° C | 55% | 1014.7 hPa | 0 mm | - | 381 W/m² | - |
| 1777566711 | 10° C | 56% | 1015 hPa | 0 mm | - | 244 W/m² | - |
| 1777566409 | 10° C | 55% | 1014.5 hPa | 0 mm | - | 867 W/m² | - |
| 1777566105 | 9.44° C | 58% | 1014.9 hPa | 0 mm | - | 824 W/m² | - |
| 1777565801 | 10° C | 58% | 1014.6 hPa | 0 mm | - | 177 W/m² | - |
| 1777565498 | 9.44° C | 60% | 1015 hPa | 0 mm | - | 547 W/m² | - |
| 1777565194 | 9.44° C | 60% | 1014.9 hPa | 0 mm | - | 865 W/m² | - |
| 1777564890 | 8.89° C | 61% | 1014.9 hPa | 0 mm | - | 901 W/m² | - |
| 1777564585 | 8.89° C | 61% | 1014.8 hPa | 0 mm | - | 732 W/m² | - |
| 1777564281 | 8.89° C | 63% | 1014.7 hPa | 0 mm | - | 257 W/m² | - |
| 1777563977 | 8.33° C | 65% | 1015.1 hPa | 0 mm | - | 819 W/m² | - |
| 1777563674 | 8.33° C | 65% | 1014.9 hPa | 0 mm | - | 168 W/m² | - |
| 1777563369 | 8.89° C | 63% | 1014.8 hPa | 0 mm | - | 883 W/m² | - |
| 1777563065 | 8.33° C | 64% | 1014.9 hPa | 0 mm | - | 323 W/m² | - |
* Rain latest hour (hover to see other rain measurements)
** Current wind speed in m/s (hover to see current wind gust speed)